Time;durP1;ratioP1;P1;durP2;ratioP2;P2;SDS_P1;SDS_P2;PMS_P1;PMS_P2;Temp;Humidity;BMP_temperature;BMP_pressure;BME280_temperature;BME280_humidity;BME280_pressure;Samples;Min_cycle;Max_cycle;Signal;HPM_P1;HPM_P2
2022/05/11 00:01:44;;;;;;;8.77;4.90;;;;;;;;;;6223852;28;20342;-72
2022/05/11 00:04:45;;;;;;;9.52;5.10;;;;;;;;;;6223207;28;20100;-72
2022/05/11 00:07:48;;;;;;;9.23;5.18;;;;;;;;;;6222332;28;20221;-71
2022/05/11 00:10:50;;;;;;;9.13;5.28;;;;;;;;;;6224056;28;20119;-71
2022/05/11 00:13:52;;;;;;;7.88;5.55;;;;;;;;;;6227280;28;20347;-71
2022/05/11 00:16:56;;;;;;;16.67;5.85;;;;;;;;;;6226742;28;20045;-72
2022/05/11 00:19:58;;;;;;;7.55;4.93;;;;;;;;;;6225826;28;20046;-71
2022/05/11 00:23:01;;;;;;;12.07;5.65;;;;;;;;;;6227365;28;20057;-71
2022/05/11 00:26:03;;;;;;;13.68;5.45;;;;;;;;;;6226315;28;20076;-71
2022/05/11 00:29:04;;;;;;;8.57;5.22;;;;;;;;;;6223057;28;20264;-71
2022/05/11 00:32:06;;;;;;;9.50;5.53;;;;;;;;;;6223188;28;20057;-72
2022/05/11 00:35:09;;;;;;;12.50;5.10;;;;;;;;;;6225813;28;20075;-72
2022/05/11 00:38:12;;;;;;;10.50;5.65;;;;;;;;;;6223507;28;20228;-72
2022/05/11 00:41:14;;;;;;;9.75;5.38;;;;;;;;;;6227533;28;20049;-71
2022/05/11 00:44:16;;;;;;;8.63;5.18;;;;;;;;;;6224028;28;20100;-72
2022/05/11 00:47:22;;;;;;;8.85;5.40;;;;;;;;;;6227373;28;20125;-71
2022/05/11 00:50:27;;;;;;;9.27;4.88;;;;;;;;;;6226391;28;20050;-72
2022/05/11 00:53:30;;;;;;;7.40;5.32;;;;;;;;;;6221764;28;20057;-72
2022/05/11 00:56:32;;;;;;;10.02;4.63;;;;;;;;;;6219773;28;20073;-72
2022/05/11 00:59:38;;;;;;;7.17;5.20;;;;;;;;;;6222537;28;20061;-72
2022/05/11 01:02:40;;;;;;;8.52;5.13;;;;;;;;;;6220015;28;20058;-72
2022/05/11 01:05:42;;;;;;;10.98;5.15;;;;;;;;;;6217382;28;20368;-71
2022/05/11 01:08:45;;;;;;;8.30;5.10;;;;;;;;;;6223266;28;20321;-72
2022/05/11 01:11:49;;;;;;;9.27;6.05;;;;;;;;;;6225018;28;20084;-71
2022/05/11 01:14:53;;;;;;;8.68;5.78;;;;;;;;;;6220148;28;20128;-72
2022/05/11 01:17:55;;;;;;;14.88;6.05;;;;;;;;;;6222814;28;20065;-71
2022/05/11 01:20:57;;;;;;;13.05;6.10;;;;;;;;;;6227523;28;20099;-71
2022/05/11 01:24:04;;;;;;;10.50;5.63;;;;;;;;;;6224033;28;20050;-71
2022/05/11 01:27:27;;;;;;;9.60;5.70;;;;;;;;;;6228514;28;20050;-71
2022/05/11 01:30:29;;;;;;;14.15;6.57;;;;;;;;;;6227751;28;20073;-71
2022/05/11 01:33:32;;;;;;;9.20;6.30;;;;;;;;;;6231526;28;20086;-71
2022/05/11 01:36:35;;;;;;;7.23;5.77;;;;;;;;;;6229078;28;20053;-72
2022/05/11 01:39:37;;;;;;;9.27;5.65;;;;;;;;;;6228017;28;20341;-71
2022/05/11 01:42:40;;;;;;;10.32;6.53;;;;;;;;;;6227109;28;20108;-71
2022/05/11 01:45:41;;;;;;;8.27;5.88;;;;;;;;;;6224476;28;20053;-71
2022/05/11 01:48:43;;;;;;;11.60;6.15;;;;;;;;;;6225718;28;20051;-72
2022/05/11 01:51:45;;;;;;;12.95;5.82;;;;;;;;;;6221172;28;20388;-71
2022/05/11 01:54:47;;;;;;;10.60;6.78;;;;;;;;;;6224774;28;20057;-71
2022/05/11 01:57:51;;;;;;;12.32;5.82;;;;;;;;;;6230505;28;20057;-71
2022/05/11 02:00:52;;;;;;;;;;;;;;;;;;6228917;28;20073;-71
2022/05/11 02:03:54;;;;;;;9.00;6.28;;;;;;;;;;6229428;28;19917;-71
2022/05/11 02:10:15;;;;;;;9.10;5.78;;;;;;;;;;6231863;28;20047;-71
2022/05/11 02:13:18;;;;;;;9.32;5.93;;;;;;;;;;6224833;28;20064;-71
2022/05/11 02:16:20;;;;;;;11.30;6.63;;;;;;;;;;6223644;28;20233;-71
2022/05/11 02:19:22;;;;;;;10.70;6.18;;;;;;;;;;6222203;28;20050;-71
2022/05/11 02:22:23;;;;;;;8.82;6.22;;;;;;;;;;6223464;28;20051;-71
2022/05/11 02:25:25;;;;;;;12.68;7.82;;;;;;;;;;6227191;28;20128;-72
2022/05/11 02:28:28;;;;;;;11.57;6.53;;;;;;;;;;6228220;28;20199;-71
2022/05/11 02:31:30;;;;;;;13.45;7.68;;;;;;;;;;6225492;28;20108;-72
2022/05/11 02:37:53;;;;;;;12.63;6.57;;;;;;;;;;6229642;28;20337;-72
2022/05/11 02:40:55;;;;;;;10.60;6.78;;;;;;;;;;6229111;28;20068;-71
2022/05/11 02:43:58;;;;;;;11.65;6.72;;;;;;;;;;6226069;28;20202;-71
2022/05/11 02:46:59;;;;;;;11.60;6.85;;;;;;;;;;6225951;28;20042;-71
2022/05/11 02:50:03;;;;;;;12.25;6.32;;;;;;;;;;6227059;28;20042;-71
2022/05/11 02:53:07;;;;;;;8.90;6.13;;;;;;;;;;6229652;28;20329;-72
2022/05/11 02:56:09;;;;;;;11.52;6.82;;;;;;;;;;6228443;28;20046;-73
2022/05/11 02:59:12;;;;;;;13.75;6.45;;;;;;;;;;6226524;28;20324;-73
2022/05/11 03:02:13;;;;;;;10.15;6.82;;;;;;;;;;6228469;28;20046;-73
2022/05/11 03:05:15;;;;;;;12.07;6.18;;;;;;;;;;6231727;28;20046;-72
2022/05/11 03:08:17;;;;;;;14.50;6.40;;;;;;;;;;6230835;28;20116;-73
2022/05/11 03:11:19;;;;;;;11.02;6.03;;;;;;;;;;6223327;28;20108;-73
2022/05/11 03:14:22;;;;;;;11.00;6.25;;;;;;;;;;6231923;28;20356;-72
2022/05/11 03:17:24;;;;;;;7.90;5.68;;;;;;;;;;6219837;28;20046;-72
2022/05/11 03:20:26;;;;;;;11.50;6.07;;;;;;;;;;6225653;28;20081;-72
2022/05/11 03:23:28;;;;;;;9.55;5.80;;;;;;;;;;6228306;28;20121;-72
2022/05/11 03:26:30;;;;;;;14.90;6.95;;;;;;;;;;6232359;28;20049;-72
2022/05/11 03:29:33;;;;;;;7.82;5.55;;;;;;;;;;6224288;28;20061;-72
2022/05/11 03:35:54;;;;;;;10.70;6.03;;;;;;;;;;6226452;28;20066;-71
2022/05/11 03:38:55;;;;;;;12.02;6.15;;;;;;;;;;6223434;28;20049;-72
2022/05/11 03:41:57;;;;;;;8.77;5.85;;;;;;;;;;6223798;28;20119;-71
2022/05/11 03:45:10;;;;;;;11.95;6.50;;;;;;;;;;6222130;28;20046;-72
2022/05/11 03:48:11;;;;;;;10.88;5.90;;;;;;;;;;6235776;28;20050;-72
2022/05/11 03:51:13;;;;;;;8.50;6.07;;;;;;;;;;6230708;28;20046;-72
2022/05/11 03:54:15;;;;;;;9.05;6.18;;;;;;;;;;6230013;28;20316;-72
2022/05/11 03:57:16;;;;;;;10.80;6.53;;;;;;;;;;6228310;28;20052;-71
2022/05/11 04:00:21;;;;;;;13.23;6.50;;;;;;;;;;6225830;28;20050;-72
2022/05/11 04:03:23;;;;;;;11.18;5.70;;;;;;;;;;6225260;28;20118;-71
2022/05/11 04:06:25;;;;;;;8.25;6.07;;;;;;;;;;6223144;28;20061;-71
2022/05/11 04:09:26;;;;;;;11.10;6.45;;;;;;;;;;6220186;28;20046;-72
2022/05/11 04:12:30;;;;;;;11.43;6.57;;;;;;;;;;6224099;28;20127;-71
2022/05/11 04:15:33;;;;;;;14.52;6.57;;;;;;;;;;6231959;28;20240;-71
2022/05/11 04:18:35;;;;;;;18.73;6.97;;;;;;;;;;6225931;28;20217;-72
2022/05/11 04:21:36;;;;;;;11.77;6.30;;;;;;;;;;6230777;28;20045;-72
2022/05/11 04:24:38;;;;;;;12.15;5.95;;;;;;;;;;6228455;28;20054;-71
2022/05/11 04:27:40;;;;;;;10.52;6.55;;;;;;;;;;6226525;28;20050;-70
2022/05/11 04:30:43;;;;;;;12.93;6.57;;;;;;;;;;6228212;28;20363;-71
2022/05/11 04:33:47;;;;;;;10.57;6.15;;;;;;;;;;6225194;28;20292;-71
2022/05/11 04:36:48;;;;;;;12.40;7.25;;;;;;;;;;6228325;28;20058;-72
2022/05/11 04:39:50;;;;;;;12.20;7.60;;;;;;;;;;6220069;28;20090;-72
2022/05/11 04:42:52;;;;;;;13.55;7.32;;;;;;;;;;6232050;28;20050;-71
2022/05/11 04:45:56;;;;;;;13.32;7.82;;;;;;;;;;6227362;28;20053;-72
2022/05/11 04:49:16;;;;;;;;;;;;;;;;;;6223867;28;20046;-71
2022/05/11 04:52:18;;;;;;;14.02;7.82;;;;;;;;;;6226840;28;19917;-72
2022/05/11 04:55:19;;;;;;;14.88;8.23;;;;;;;;;;6221519;28;20057;-72
2022/05/11 04:58:21;;;;;;;17.15;8.13;;;;;;;;;;6222478;28;20115;-72
2022/05/11 05:01:25;;;;;;;14.80;9.20;;;;;;;;;;6222657;28;20104;-72
2022/05/11 05:04:26;;;;;;;13.10;9.15;;;;;;;;;;6220457;28;20050;-73
2022/05/11 05:07:28;;;;;;;12.70;9.68;;;;;;;;;;6221881;28;20049;-71
2022/05/11 05:10:30;;;;;;;13.50;10.30;;;;;;;;;;6224605;28;20050;-72
2022/05/11 05:13:32;;;;;;;15.07;9.63;;;;;;;;;;6223034;28;20092;-72
2022/05/11 05:16:35;;;;;;;16.85;10.48;;;;;;;;;;6224318;28;20051;-73
2022/05/11 05:19:37;;;;;;;16.70;10.35;;;;;;;;;;6227717;28;20065;-71
2022/05/11 05:22:39;;;;;;;17.40;9.52;;;;;;;;;;6226386;28;20321;-72
2022/05/11 05:25:41;;;;;;;14.02;9.23;;;;;;;;;;6223313;28;20080;-71
2022/05/11 05:32:03;;;;;;;16.65;10.20;;;;;;;;;;6227124;28;20054;-71
2022/05/11 05:35:06;;;;;;;15.55;9.57;;;;;;;;;;6225692;28;20050;-71
2022/05/11 05:38:08;;;;;;;14.35;9.85;;;;;;;;;;6221281;28;20050;-71
2022/05/11 05:41:11;;;;;;;15.30;9.27;;;;;;;;;;6226282;28;20329;-71
2022/05/11 05:44:13;;;;;;;16.88;9.82;;;;;;;;;;6223712;28;20046;-71
2022/05/11 05:47:16;;;;;;;14.00;8.95;;;;;;;;;;6223768;28;20061;-71
2022/05/11 05:50:18;;;;;;;18.10;9.50;;;;;;;;;;6221488;28;20052;-71
2022/05/11 05:53:21;;;;;;;16.20;9.63;;;;;;;;;;6220105;28;20359;-71
2022/05/11 05:56:23;;;;;;;18.50;10.63;;;;;;;;;;6221724;28;20068;-71
2022/05/11 05:59:25;;;;;;;14.48;10.25;;;;;;;;;;6222221;28;20100;-71
2022/05/11 06:02:28;;;;;;;14.50;10.73;;;;;;;;;;6222650;28;20228;-67
2022/05/11 06:05:29;;;;;;;19.33;11.13;;;;;;;;;;6222176;28;20057;-67
2022/05/11 06:08:31;;;;;;;15.00;10.48;;;;;;;;;;6217468;28;20333;-68
2022/05/11 06:11:33;;;;;;;14.45;9.80;;;;;;;;;;6223678;28;20050;-68
2022/05/11 06:14:35;;;;;;;14.85;10.70;;;;;;;;;;6218579;28;20371;-68
2022/05/11 06:17:38;;;;;;;15.68;10.10;;;;;;;;;;6221189;28;20119;-67
2022/05/11 06:20:40;;;;;;;16.15;10.38;;;;;;;;;;6228034;28;20060;-67
2022/05/11 06:23:42;;;;;;;14.90;10.35;;;;;;;;;;6225526;28;20050;-67
2022/05/11 06:26:44;;;;;;;24.80;11.05;;;;;;;;;;6223770;28;20101;-71
2022/05/11 06:29:51;;;;;;;15.90;10.35;;;;;;;;;;6239116;28;20065;-72
2022/05/11 06:32:54;;;;;;;11.88;7.03;;;;;;;;;;6222907;28;20049;-71
2022/05/11 06:35:56;;;;;;;10.95;6.55;;;;;;;;;;6227287;28;20053;-71
2022/05/11 06:38:58;;;;;;;13.60;5.88;;;;;;;;;;6230350;28;20057;-71
2022/05/11 06:41:59;;;;;;;10.85;6.13;;;;;;;;;;6229870;28;20045;-71
2022/05/11 06:45:01;;;;;;;13.57;6.22;;;;;;;;;;6228540;28;20045;-70
2022/05/11 06:48:04;;;;;;;12.45;6.13;;;;;;;;;;6226928;28;20049;-71
2022/05/11 06:51:06;;;;;;;9.70;5.78;;;;;;;;;;6228753;28;20053;-71
2022/05/11 07:00:46;;;;;;;10.23;6.25;;;;;;;;;;6220320;28;20045;-71
2022/05/11 07:03:49;;;;;;;8.27;5.80;;;;;;;;;;6225223;28;20045;-71
2022/05/11 07:06:52;;;;;;;9.43;6.10;;;;;;;;;;6225371;28;20054;-71
2022/05/11 07:09:53;;;;;;;12.13;6.00;;;;;;;;;;6232735;28;20110;-71
2022/05/11 07:12:56;;;;;;;13.02;6.22;;;;;;;;;;6226519;28;20050;-71
2022/05/11 07:15:57;;;;;;;9.52;5.30;;;;;;;;;;6226621;28;20062;-71
2022/05/11 07:19:01;;;;;;;8.50;5.30;;;;;;;;;;6221074;28;20042;-71
2022/05/11 07:22:02;;;;;;;;;;;;;;;;;;6226080;28;20101;-71
2022/05/11 07:25:05;;;;;;;14.82;6.45;;;;;;;;;;6226176;28;19936;-71
2022/05/11 07:28:07;;;;;;;14.87;5.87;;;;;;;;;;6225571;28;20042;-71
2022/05/11 07:31:08;;;;;;;14.57;6.45;;;;;;;;;;6224437;28;20049;-71
2022/05/11 07:34:12;;;;;;;11.73;6.05;;;;;;;;;;6225186;28;20050;-71
2022/05/11 07:37:13;;;;;;;11.10;6.20;;;;;;;;;;6222846;28;20388;-71
2022/05/11 07:40:17;;;;;;;13.00;6.50;;;;;;;;;;6231379;28;20099;-71
2022/05/11 07:43:20;;;;;;;7.65;5.05;;;;;;;;;;6227667;28;20085;-71
2022/05/11 07:46:21;;;;;;;9.43;5.03;;;;;;;;;;6230918;28;20337;-71
2022/05/11 07:49:24;;;;;;;8.90;5.90;;;;;;;;;;6226997;28;20061;-71
2022/05/11 07:52:26;;;;;;;13.30;6.00;;;;;;;;;;6228862;28;20053;-72
2022/05/11 07:55:28;;;;;;;10.68;5.57;;;;;;;;;;6229740;28;20052;-72
2022/05/11 08:01:49;;;;;;;13.18;6.32;;;;;;;;;;6226752;28;20058;-71
2022/05/11 08:04:52;;;;;;;8.82;6.60;;;;;;;;;;6219613;28;20054;-72
2022/05/11 08:07:56;;;;;;;12.82;6.18;;;;;;;;;;6223404;28;20096;-71
2022/05/11 08:10:57;;;;;;;10.63;6.55;;;;;;;;;;6222512;28;20046;-72
2022/05/11 08:13:59;;;;;;;13.35;6.03;;;;;;;;;;6223020;28;20119;-71
2022/05/11 08:17:01;;;;;;;9.20;6.05;;;;;;;;;;6223474;28;20053;-72
2022/05/11 08:20:08;;;;;;;8.80;6.28;;;;;;;;;;6221579;28;20235;-72
2022/05/11 08:23:10;;;;;;;11.95;6.20;;;;;;;;;;6223548;28;20054;-72
2022/05/11 08:26:12;;;;;;;16.15;5.97;;;;;;;;;;6220933;28;20332;-72
2022/05/11 08:33:19;;;;;;;9.18;5.60;;;;;;;;;;6231064;28;20056;-71
2022/05/11 08:36:00;;;;;;;12.60;6.68;;;;;;;;;;6221995;28;20045;-71
2022/05/11 08:39:02;;;;;;;12.82;5.60;;;;;;;;;;6225278;28;20049;-71
2022/05/11 08:42:04;;;;;;;8.10;5.90;;;;;;;;;;6223196;28;20057;-71
2022/05/11 08:45:06;;;;;;;11.50;6.67;;;;;;;;;;6224054;28;20053;-72
2022/05/11 08:48:10;;;;;;;11.00;6.20;;;;;;;;;;6226985;28;20520;-71
2022/05/11 08:51:18;;;;;;;12.38;6.30;;;;;;;;;;6226783;28;20049;-72
2022/05/11 08:54:22;;;;;;;11.85;6.97;;;;;;;;;;6228189;28;20054;-72
2022/05/11 08:57:26;;;;;;;14.05;9.75;;;;;;;;;;6223426;28;20050;-72
2022/05/11 09:00:28;;;;;;;10.38;5.63;;;;;;;;;;6226755;28;20096;-71
2022/05/11 09:03:32;;;;;;;6.40;5.22;;;;;;;;;;6219597;28;20066;-71
2022/05/11 09:06:37;;;;;;;10.27;4.93;;;;;;;;;;6225191;28;20061;-72
2022/05/11 09:09:38;;;;;;;11.18;4.80;;;;;;;;;;6234422;28;20228;-71
2022/05/11 09:12:40;;;;;;;6.10;5.13;;;;;;;;;;6228914;28;20257;-72
2022/05/11 09:16:00;;;;;;;8.18;4.70;;;;;;;;;;6231138;28;20085;-71
2022/05/11 09:19:10;;;;;;;13.02;4.65;;;;;;;;;;6219805;28;20047;-71
2022/05/11 09:22:17;;;;;;;10.05;5.30;;;;;;;;;;6225000;28;20340;-71
2022/05/11 09:25:22;;;;;;;11.40;5.20;;;;;;;;;;6224804;28;20248;-71
2022/05/11 09:28:27;;;;;;;8.20;5.32;;;;;;;;;;6228746;28;20046;-71
2022/05/11 09:31:28;;;;;;;8.27;4.85;;;;;;;;;;6221005;28;20061;-71
2022/05/11 09:34:33;;;;;;;10.88;5.57;;;;;;;;;;6226618;28;20084;-71
2022/05/11 09:37:37;;;;;;;7.65;5.00;;;;;;;;;;6225461;28;20058;-71
2022/05/11 09:40:55;;;;;;;7.50;5.22;;;;;;;;;;6223639;28;20140;-71
2022/05/11 09:43:58;;;;;;;8.85;4.80;;;;;;;;;;6225627;28;20204;-72
2022/05/11 09:46:59;;;;;;;;;;;;;;;;;;6230249;28;20044;-70
2022/05/11 09:50:22;;;;;;;12.68;4.97;;;;;;;;;;6231504;28;19917;-71
2022/05/11 09:53:32;;;;;;;7.80;5.57;;;;;;;;;;6226709;28;20054;-71
2022/05/11 09:56:35;;;;;;;31.10;22.20;;;;;;;;;;6233614;28;20050;-71
2022/05/11 09:59:39;;;;;;;14.02;8.63;;;;;;;;;;6226714;28;20075;-70
2022/05/11 10:02:42;;;;;;;37.17;33.22;;;;;;;;;;6232003;28;20208;-71
2022/05/11 10:05:47;;;;;;;7.60;4.95;;;;;;;;;;6227117;28;20050;-71
2022/05/11 10:08:52;;;;;;;12.85;4.97;;;;;;;;;;6229025;28;20080;-71
2022/05/11 10:11:54;;;;;;;13.77;5.13;;;;;;;;;;6226585;28;20054;-70
2022/05/11 10:21:53;;;;;;;6.18;3.97;;;;;;;;;;6226855;28;20050;-73
2022/05/11 10:25:06;;;;;;;7.70;4.32;;;;;;;;;;6226226;28;20228;-73
2022/05/11 10:28:17;;;;;;;5.25;4.22;;;;;;;;;;6229827;28;20050;-73
2022/05/11 10:31:26;;;;;;;6.43;4.07;;;;;;;;;;6227702;28;20117;-73
2022/05/11 10:34:32;;;;;;;8.40;4.70;;;;;;;;;;6225817;28;20074;-73
2022/05/11 10:37:39;;;;;;;11.10;4.43;;;;;;;;;;6223805;28;20318;-73
2022/05/11 10:40:48;;;;;;;6.82;3.50;;;;;;;;;;6228137;28;20241;-73
2022/05/11 10:43:58;;;;;;;8.27;4.10;;;;;;;;;;6222689;28;20054;-73
2022/05/11 10:47:08;;;;;;;6.25;3.92;;;;;;;;;;6226206;28;20060;-73
2022/05/11 10:50:18;;;;;;;6.60;3.78;;;;;;;;;;6228641;28;20037;-73
2022/05/11 10:53:35;;;;;;;6.72;4.10;;;;;;;;;;6218879;28;20073;-73
2022/05/11 10:56:47;;;;;;;12.60;4.03;;;;;;;;;;6230450;28;20046;-73
2022/05/11 10:59:56;;;;;;;6.30;3.92;;;;;;;;;;6231625;28;20044;-74
2022/05/11 11:03:36;;;;;;;4.53;2.97;;;;;;;;;;6227173;28;20045;-73
2022/05/11 11:07:13;;;;;;;10.73;4.07;;;;;;;;;;6224927;28;20145;-74
2022/05/11 11:10:27;;;;;;;6.90;4.10;;;;;;;;;;6227030;28;20340;-73
2022/05/11 11:13:42;;;;;;;6.85;3.55;;;;;;;;;;6225560;28;20157;-73
2022/05/11 11:16:44;;;;;;;7.32;4.22;;;;;;;;;;6220712;28;20052;-73
2022/05/11 11:19:49;;;;;;;9.23;4.40;;;;;;;;;;6223747;28;20351;-73
2022/05/11 11:23:31;;;;;;;8.50;4.15;;;;;;;;;;6225025;28;20309;-73
2022/05/11 11:26:54;;;;;;;6.75;3.50;;;;;;;;;;6153335;28;20166;-73
2022/05/11 11:30:20;;;;;;;6.05;3.63;;;;;;;;;;6155705;28;20338;-74
2022/05/11 11:33:24;;;;;;;5.45;3.80;;;;;;;;;;6150515;28;20183;-74
2022/05/11 11:36:30;;;;;;;7.05;3.65;;;;;;;;;;6155730;28;20136;-73
2022/05/11 11:39:52;;;;;;;5.22;3.75;;;;;;;;;;6150746;28;20050;-73
2022/05/11 11:42:55;;;;;;;6.35;3.60;;;;;;;;;;6150286;28;20051;-73
2022/05/11 11:46:04;;;;;;;8.02;4.25;;;;;;;;;;6148361;28;20059;-73
2022/05/11 11:49:09;;;;;;;6.18;3.88;;;;;;;;;;6149898;28;20118;-73
2022/05/11 11:52:34;;;;;;;4.85;3.60;;;;;;;;;;6152746;28;20091;-73
2022/05/11 11:55:36;;;;;;;5.20;3.28;;;;;;;;;;6150143;28;20051;-73
2022/05/11 11:58:38;;;;;;;6.57;3.13;;;;;;;;;;6153200;28;20230;-73
2022/05/11 12:01:43;;;;;;;7.07;3.55;;;;;;;;;;6187496;28;20104;-68
2022/05/11 12:04:48;;;;;;;5.95;3.92;;;;;;;;;;6223208;28;20061;-70
2022/05/11 12:18:00;;;;;;;6.10;3.63;;;;;;;;;;6226199;28;20046;-68
2022/05/11 12:21:03;;;;;;;6.57;3.97;;;;;;;;;;6223849;28;20045;-68
2022/05/11 12:24:07;;;;;;;7.07;3.80;;;;;;;;;;6225766;28;20105;-68
2022/05/11 12:27:12;;;;;;;5.18;3.80;;;;;;;;;;6223280;28;20058;-68
2022/05/11 12:30:21;;;;;;;4.63;4.05;;;;;;;;;;6222490;28;20099;-67
2022/05/11 12:33:26;;;;;;;5.57;3.65;;;;;;;;;;6223228;28;20046;-68
2022/05/11 12:36:38;;;;;;;5.45;3.90;;;;;;;;;;6217111;28;20265;-68
2022/05/11 12:39:40;;;;;;;6.18;3.40;;;;;;;;;;6230139;28;20100;-67
2022/05/11 12:42:42;;;;;;;;;;;;;;;;;;6223018;28;20503;-68
2022/05/11 12:45:46;;;;;;;8.60;3.72;;;;;;;;;;6220151;28;19955;-68
2022/05/11 12:48:55;;;;;;;6.50;3.38;;;;;;;;;;6222753;28;20057;-68
2022/05/11 12:52:01;;;;;;;7.57;3.47;;;;;;;;;;6217605;28;20061;-69
2022/05/11 12:55:05;;;;;;;19.23;17.38;;;;;;;;;;6219214;28;20272;-71
2022/05/11 12:58:07;;;;;;;20.80;19.05;;;;;;;;;;6220351;28;20092;-70
2022/05/11 13:01:08;;;;;;;;;;;;;;;;;;6219629;28;20048;-69
2022/05/11 13:04:20;;;;;;;15.10;11.02;;;;;;;;;;6220942;28;19921;-70
2022/05/11 13:07:24;;;;;;;7.45;3.63;;;;;;;;;;6221320;28;20068;-70
2022/05/11 13:10:29;;;;;;;5.05;3.08;;;;;;;;;;6221749;28;20054;-70
2022/05/11 13:13:31;;;;;;;5.57;3.70;;;;;;;;;;6224134;28;20073;-70
2022/05/11 13:16:35;;;;;;;8.90;3.58;;;;;;;;;;6226829;28;20324;-69
2022/05/11 13:19:40;;;;;;;3.97;2.35;;;;;;;;;;6219065;28;20049;-70
2022/05/11 13:22:41;;;;;;;4.13;2.30;;;;;;;;;;6217572;28;20277;-69
2022/05/11 13:25:48;;;;;;;3.63;2.42;;;;;;;;;;6218539;28;20210;-69
2022/05/11 13:28:57;;;;;;;3.67;2.35;;;;;;;;;;6217062;28;20054;-70
2022/05/11 13:32:05;;;;;;;4.63;2.40;;;;;;;;;;6213926;28;20508;-69
2022/05/11 13:35:24;;;;;;;5.80;2.83;;;;;;;;;;6215386;28;20049;-71
2022/05/11 13:38:25;;;;;;;29.17;26.08;;;;;;;;;;6220530;28;20054;-69
2022/05/11 13:41:32;;;;;;;52.60;47.20;;;;;;;;;;6216507;28;20379;-68
2022/05/11 13:44:37;;;;;;;7.30;3.20;;;;;;;;;;6222140;28;20049;-70
2022/05/11 13:51:25;;;;;;;4.18;3.50;;;;;;;;;;6224531;28;20050;-71
2022/05/11 13:54:27;;;;;;;;;;;;;;;;;;6226463;28;20046;-69
2022/05/11 13:57:30;;;;;;;;;;;;;;;;;;6226028;28;20242;-71
2022/05/11 14:00:32;;;;;;;3.75;2.63;;;;;;;;;;6227774;28;19992;-70
2022/05/11 14:03:38;;;;;;;4.32;2.95;;;;;;;;;;6223847;28;20058;-68
2022/05/11 14:06:56;;;;;;;4.45;2.63;;;;;;;;;;6214076;28;20054;-70
2022/05/11 14:09:57;;;;;;;12.05;10.50;;;;;;;;;;6220948;28;20290;-70
2022/05/11 14:12:59;;;;;;;45.72;41.13;;;;;;;;;;6222850;28;20240;-69
2022/05/11 14:16:01;;;;;;;;;;;;;;;;;;6223389;28;20050;-69
2022/05/11 14:19:02;;;;;;;6.22;3.58;;;;;;;;;;6218462;28;19921;-68
2022/05/11 14:22:06;;;;;;;;;;;;;;;;;;6218630;28;20329;-68
2022/05/11 14:25:08;;;;;;;10.30;3.20;;;;;;;;;;6220033;28;19940;-69
2022/05/11 14:28:10;;;;;;;6.68;3.10;;;;;;;;;;6223267;28;20058;-69
2022/05/11 14:31:16;;;;;;;5.32;3.17;;;;;;;;;;6229259;28;20189;-69
2022/05/11 14:34:20;;;;;;;4.63;2.65;;;;;;;;;;6226785;28;20308;-69
2022/05/11 14:37:23;;;;;;;4.95;2.85;;;;;;;;;;6230862;28;20333;-68
2022/05/11 14:40:27;;;;;;;14.98;8.93;;;;;;;;;;6229818;28;20268;-68
2022/05/11 14:43:29;;;;;;;3.30;2.70;;;;;;;;;;6233428;28;20333;-69
2022/05/11 14:46:31;;;;;;;9.77;5.25;;;;;;;;;;6231154;28;20120;-71
2022/05/11 14:49:32;;;;;;;;;;;;;;;;;;6226469;28;20055;-69
2022/05/11 14:52:35;;;;;;;6.70;2.60;;;;;;;;;;6228040;28;19921;-70
2022/05/11 14:55:37;;;;;;;4.97;2.17;;;;;;;;;;6225556;28;20383;-71
2022/05/11 15:01:57;;;;;;;27.05;23.77;;;;;;;;;;6225964;28;20049;-70
2022/05/11 15:04:59;;;;;;;7.38;5.07;;;;;;;;;;6215946;28;20068;-70
2022/05/11 15:08:02;;;;;;;10.00;8.95;;;;;;;;;;6225096;28;20053;-70
2022/05/11 15:14:27;;;;;;;4.50;2.20;;;;;;;;;;6219728;28;20045;-70
2022/05/11 15:17:30;;;;;;;4.88;2.65;;;;;;;;;;6226288;28;20050;-70
2022/05/11 15:20:31;;;;;;;6.80;2.80;;;;;;;;;;6227735;28;20101;-70
2022/05/11 15:23:35;;;;;;;23.77;17.58;;;;;;;;;;6223092;28;20050;-70
2022/05/11 15:26:36;;;;;;;29.17;24.00;;;;;;;;;;6226259;28;20049;-70
2022/05/11 15:29:38;;;;;;;11.82;5.70;;;;;;;;;;6228489;28;20049;-70
2022/05/11 15:32:40;;;;;;;13.07;9.18;;;;;;;;;;6226221;28;20296;-71
2022/05/11 15:35:42;;;;;;;3.78;2.45;;;;;;;;;;6217280;28;20053;-70
2022/05/11 15:38:45;;;;;;;4.78;2.53;;;;;;;;;;6220895;28;20049;-70
2022/05/11 15:41:47;;;;;;;5.20;2.97;;;;;;;;;;6220584;28;20052;-69
2022/05/11 15:44:50;;;;;;;3.72;2.83;;;;;;;;;;6229561;28;20054;-69
2022/05/11 15:47:52;;;;;;;5.47;2.40;;;;;;;;;;6223054;28;20061;-69
2022/05/11 15:50:53;;;;;;;5.45;2.85;;;;;;;;;;6225463;28;20052;-69
2022/05/11 15:53:56;;;;;;;4.47;2.33;;;;;;;;;;6229455;28;20054;-70
2022/05/11 15:56:59;;;;;;;14.02;12.02;;;;;;;;;;6228951;28;20100;-70
2022/05/11 16:00:00;;;;;;;6.95;3.47;;;;;;;;;;6228743;28;20045;-70
2022/05/11 16:03:05;;;;;;;7.55;3.25;;;;;;;;;;6230104;28;20129;-75
2022/05/11 16:06:07;;;;;;;7.75;3.28;;;;;;;;;;6224864;28;20265;-76
2022/05/11 16:09:12;;;;;;;8.35;3.83;;;;;;;;;;6221864;28;20268;-74
2022/05/11 16:12:16;;;;;;;9.10;3.95;;;;;;;;;;6216649;28;20061;-74
2022/05/11 16:15:18;;;;;;;8.52;3.65;;;;;;;;;;6228885;28;20042;-70
2022/05/11 16:21:49;;;;;;;8.30;3.40;;;;;;;;;;6173654;28;20080;-75
2022/05/11 16:24:52;;;;;;;9.33;3.50;;;;;;;;;;6170039;28;20058;-74
2022/05/11 16:27:55;;;;;;;5.95;3.58;;;;;;;;;;6172473;28;20073;-72
2022/05/11 16:30:58;;;;;;;6.03;4.32;;;;;;;;;;6170780;28;20318;-73
2022/05/11 16:33:59;;;;;;;6.68;3.35;;;;;;;;;;6173218;28;20054;-73
2022/05/11 16:37:01;;;;;;;8.00;3.55;;;;;;;;;;6171480;28;20058;-72
2022/05/11 16:40:06;;;;;;;8.60;3.85;;;;;;;;;;6174734;28;20062;-72
2022/05/11 16:43:07;;;;;;;9.45;3.60;;;;;;;;;;6173685;28;20085;-72
2022/05/11 16:46:09;;;;;;;8.68;3.90;;;;;;;;;;6166070;28;20047;-72
2022/05/11 16:49:11;;;;;;;6.32;3.30;;;;;;;;;;6170158;28;20046;-72
2022/05/11 16:52:12;;;;;;;10.55;3.67;;;;;;;;;;6170689;28;21309;-72
2022/05/11 16:55:16;;;;;;;6.90;3.50;;;;;;;;;;6170865;28;20359;-72
2022/05/11 16:58:21;;;;;;;7.35;3.67;;;;;;;;;;6216066;28;20076;-72
2022/05/11 17:01:26;;;;;;;7.55;3.75;;;;;;;;;;6223254;28;20250;-72
2022/05/11 17:04:29;;;;;;;5.68;3.83;;;;;;;;;;6224117;28;20056;-72
2022/05/11 17:07:31;;;;;;;10.52;4.22;;;;;;;;;;6220358;28;20054;-72
2022/05/11 17:10:34;;;;;;;6.82;3.40;;;;;;;;;;6228128;28;20133;-73
2022/05/11 17:13:36;;;;;;;7.38;3.95;;;;;;;;;;6228767;28;20054;-73
2022/05/11 17:16:38;;;;;;;8.98;3.45;;;;;;;;;;6222881;28;20155;-73
2022/05/11 17:19:40;;;;;;;4.25;3.20;;;;;;;;;;6223236;28;20466;-75
2022/05/11 17:22:42;;;;;;;8.43;3.90;;;;;;;;;;6219040;28;20060;-76
2022/05/11 17:25:46;;;;;;;5.40;3.50;;;;;;;;;;6217097;28;20316;-71
2022/05/11 17:28:48;;;;;;;9.10;3.80;;;;;;;;;;6218877;28;20054;-71
2022/05/11 17:31:50;;;;;;;7.50;3.40;;;;;;;;;;6214385;28;20248;-72
2022/05/11 17:34:52;;;;;;;3.90;2.97;;;;;;;;;;6219597;28;20072;-72
2022/05/11 17:37:53;;;;;;;3.90;2.97;;;;;;;;;;6222850;28;20051;-72
2022/05/11 17:40:57;;;;;;;5.25;2.75;;;;;;;;;;6220543;28;20149;-72
2022/05/11 17:43:58;;;;;;;;;;;;;;;;;;6223357;28;20328;-72
2022/05/11 17:47:00;;;;;;;5.65;2.50;;;;;;;;;;6219424;28;19917;-72
2022/05/11 17:50:02;;;;;;;4.20;2.33;;;;;;;;;;6219606;28;20058;-72
2022/05/11 17:53:04;;;;;;;5.57;2.50;;;;;;;;;;6216257;28;20060;-72
2022/05/11 17:56:07;;;;;;;9.15;2.28;;;;;;;;;;6216701;28;20054;-72
2022/05/11 17:59:09;;;;;;;5.50;2.20;;;;;;;;;;6219533;28;20105;-72
2022/05/11 18:02:11;;;;;;;6.82;2.40;;;;;;;;;;6218430;28;20053;-72
2022/05/11 18:05:14;;;;;;;4.07;2.50;;;;;;;;;;6226237;28;20329;-72
2022/05/11 18:08:16;;;;;;;4.70;2.80;;;;;;;;;;6230903;28;20105;-72
2022/05/11 18:11:20;;;;;;;5.10;2.50;;;;;;;;;;6226662;28;20125;-71
2022/05/11 18:14:23;;;;;;;3.03;2.53;;;;;;;;;;6224027;28;20054;-73
2022/05/11 18:17:25;;;;;;;2.70;2.17;;;;;;;;;;6223220;28;20062;-73
2022/05/11 18:20:27;;;;;;;4.75;2.40;;;;;;;;;;6218615;28;20065;-72
2022/05/11 18:23:29;;;;;;;2.38;1.85;;;;;;;;;;6224299;28;20046;-73
2022/05/11 18:26:32;;;;;;;4.60;2.50;;;;;;;;;;6218575;28;20054;-70
2022/05/11 18:29:33;;;;;;;2.75;1.98;;;;;;;;;;6227692;28;20057;-67
2022/05/11 18:32:35;;;;;;;3.80;2.40;;;;;;;;;;6224084;28;20233;-71
2022/05/11 18:35:37;;;;;;;3.50;2.40;;;;;;;;;;6223013;28;20053;-73
2022/05/11 18:38:38;;;;;;;5.85;2.47;;;;;;;;;;6218368;28;20321;-72
2022/05/11 18:41:42;;;;;;;4.25;2.40;;;;;;;;;;6224201;28;20185;-73
2022/05/11 18:44:43;;;;;;;4.43;2.05;;;;;;;;;;6226229;28;20101;-70
2022/05/11 18:47:45;;;;;;;6.15;2.70;;;;;;;;;;6222878;28;20109;-69
2022/05/11 18:50:47;;;;;;;4.68;2.08;;;;;;;;;;6228721;28;20050;-68
2022/05/11 18:53:49;;;;;;;3.75;2.17;;;;;;;;;;6225904;28;20052;-69
2022/05/11 18:56:54;;;;;;;6.35;2.90;;;;;;;;;;6226399;28;20316;-68
2022/05/11 18:59:56;;;;;;;9.10;2.75;;;;;;;;;;6227866;28;20141;-69
2022/05/11 19:02:57;;;;;;;7.35;2.97;;;;;;;;;;6230960;28;20053;-69
2022/05/11 19:05:59;;;;;;;6.35;2.90;;;;;;;;;;6229473;28;20092;-66
2022/05/11 19:09:00;;;;;;;4.85;2.83;;;;;;;;;;6228744;28;20080;-67
2022/05/11 19:12:04;;;;;;;4.22;2.13;;;;;;;;;;6228418;28;20046;-65
2022/05/11 19:15:07;;;;;;;3.35;2.42;;;;;;;;;;6222261;28;20054;-65
2022/05/11 19:18:09;;;;;;;;;;;;;;;;;;6223664;28;20128;-68